Time;durP1;ratioP1;P1;durP2;ratioP2;P2;SDS_P1;SDS_P2;PMS_P1;PMS_P2;Temp;Humidity;BMP_temperature;BMP_pressure;BME280_temperature;BME280_humidity;BME280_pressure;Samples;Min_cycle;Max_cycle;Signal;HPM_P1;HPM_P2
2021/12/13 00:01:29;;;;;;;8.13;5.03;;;;;;;-1.53;100.00;94951.47;5092115;28;20403;-68
2021/12/13 00:04:09;;;;;;;8.18;5.55;;;;;;;-1.38;100.00;94965.25;5092369;28;20043;-68
2021/12/13 00:06:45;;;;;;;10.23;4.97;;;;;;;-1.41;100.00;94959.66;5090028;28;20412;-68
2021/12/13 00:09:16;;;;;;;7.65;4.80;;;;;;;-1.40;100.00;94972.28;5089806;28;20058;-68
2021/12/13 00:11:46;;;;;;;10.68;5.00;;;;;;;-1.38;100.00;94970.38;5073660;28;20134;-68
2021/12/13 00:14:16;;;;;;;6.03;3.80;;;;;;;-1.36;100.00;94963.34;5096205;28;20047;-68
2021/12/13 00:16:46;;;;;;;9.68;5.22;;;;;;;-1.45;100.00;94959.16;5087692;28;20044;-68
2021/12/13 00:19:24;;;;;;;9.85;4.53;;;;;;;-1.45;100.00;94974.50;5088382;28;20044;-68
2021/12/13 00:21:58;;;;;;;6.57;4.63;;;;;;;-1.57;100.00;94965.50;5091410;28;20047;-67
2021/12/13 00:24:31;;;;;;;6.55;4.25;;;;;;;-1.42;100.00;94974.19;5093411;28;20114;-68
2021/12/13 00:27:09;;;;;;;5.32;3.15;;;;;;;-1.52;100.00;94973.50;5094905;28;20048;-67
2021/12/13 00:30:04;;;;;;;5.75;3.70;;;;;;;-1.44;100.00;94971.00;5073581;28;20059;-68
2021/12/13 00:32:46;;;;;;;5.68;3.90;;;;;;;-1.51;100.00;94969.19;5094466;28;20040;-67
2021/12/13 00:35:19;;;;;;;7.13;3.35;;;;;;;-1.43;100.00;94982.00;5088179;28;20043;-67
2021/12/13 00:37:51;;;;;;;6.82;3.80;;;;;;;-1.43;100.00;94987.91;5091046;28;20035;-67
2021/12/13 00:40:25;;;;;;;7.25;4.20;;;;;;;-1.37;100.00;94984.75;5088190;28;20036;-67
2021/12/13 00:43:17;;;;;;;4.65;3.40;;;;;;;-1.38;100.00;94980.59;5095010;28;20058;-68
2021/12/13 00:45:56;;;;;;;7.53;4.05;;;;;;;-1.40;100.00;94982.50;5093237;28;20119;-68
2021/12/13 00:48:27;;;;;;;6.90;4.45;;;;;;;-1.35;100.00;94982.84;5096245;28;20043;-68
2021/12/13 00:50:59;;;;;;;8.40;4.55;;;;;;;-1.48;100.00;94974.78;5094747;28;20509;-67
2021/12/13 00:53:32;;;;;;;6.88;4.60;;;;;;;-1.36;100.00;94983.78;5092480;28;20126;-68
2021/12/13 00:56:00;;;;;;;8.60;4.30;;;;;;;-1.31;100.00;94985.13;5094058;28;20039;-68
2021/12/13 00:58:27;;;;;;;7.10;3.85;;;;;;;-1.28;100.00;94974.56;5092913;28;20516;-67
2021/12/13 01:01:00;;;;;;;6.95;4.45;;;;;;;-1.35;100.00;94970.06;5096437;28;20055;-67
2021/12/13 01:03:40;;;;;;;6.32;4.07;;;;;;;-1.36;100.00;94970.22;5092390;28;20036;-67
2021/12/13 01:06:10;;;;;;;6.82;4.72;;;;;;;-1.28;100.00;94972.78;5095034;28;20035;-68
2021/12/13 01:09:18;;;;;;;5.75;2.88;;;;;;;-1.32;100.00;94973.28;5094180;28;20126;-68
2021/12/13 01:11:57;;;;;;;4.00;3.25;;;;;;;-1.34;100.00;94970.88;5091811;28;20043;-67
2021/12/13 01:14:34;;;;;;;4.38;3.40;;;;;;;-1.30;100.00;94971.38;5095823;28;20046;-67
2021/12/13 01:17:20;;;;;;;4.95;3.13;;;;;;;-1.34;100.00;94986.19;5091226;28;20040;-67
2021/12/13 01:20:00;;;;;;;4.57;2.92;;;;;;;-1.38;100.00;94975.47;5100358;28;20055;-67
2021/12/13 01:22:49;;;;;;;4.85;3.10;;;;;;;-1.35;100.00;94975.19;5092878;28;20040;-68
2021/12/13 01:25:42;;;;;;;6.82;3.65;;;;;;;-1.32;100.00;94963.06;5095631;28;20044;-67
2021/12/13 01:28:36;;;;;;;6.38;3.60;;;;;;;-1.24;100.00;94975.84;5103675;28;20139;-68
2021/12/13 01:31:24;;;;;;;8.05;4.30;;;;;;;-1.26;100.00;94977.75;5088043;28;20527;-67
2021/12/13 01:33:52;;;;;;;6.43;4.25;;;;;;;-1.29;100.00;94963.53;5085602;28;20187;-67
2021/12/13 01:36:27;;;;;;;5.78;3.42;;;;;;;-1.24;100.00;94975.84;5097137;28;20509;-68
2021/12/13 01:39:06;;;;;;;3.97;2.60;;;;;;;-1.32;100.00;94963.06;5094593;28;20432;-67
2021/12/13 01:41:59;;;;;;;5.13;3.45;;;;;;;-1.29;100.00;94963.53;5093210;28;20043;-67
2021/12/13 01:44:34;;;;;;;5.95;3.45;;;;;;;-1.28;100.00;94969.44;5097237;28;20564;-67
2021/12/13 01:47:08;;;;;;;8.07;4.03;;;;;;;-1.20;100.00;94966.94;5093381;28;20040;-67
2021/12/13 01:49:40;;;;;;;4.50;3.10;;;;;;;-1.10;100.00;94967.59;5095971;28;20082;-67
2021/12/13 01:52:25;;;;;;;4.53;3.08;;;;;;;-1.12;100.00;94974.63;5095225;28;20043;-67
2021/12/13 01:54:55;;;;;;;6.55;3.05;;;;;;;-1.17;100.00;94971.72;5096364;28;20044;-67
2021/12/13 01:57:37;;;;;;;9.35;3.95;;;;;;;-1.15;100.00;94969.84;5096660;28;20118;-67
2021/12/13 02:00:18;;;;;;;5.97;2.65;;;;;;;-1.31;100.00;94954.44;5093814;28;20048;-67
2021/12/13 02:02:50;;;;;;;6.18;3.65;;;;;;;-1.17;100.00;94966.59;5096826;28;20122;-67
2021/12/13 02:05:29;;;;;;;7.13;3.55;;;;;;;-1.22;100.00;94963.75;5093686;28;20044;-67
2021/12/13 02:08:02;;;;;;;4.18;2.95;;;;;;;-1.14;100.00;94960.41;5093798;28;20858;-68
2021/12/13 02:10:41;;;;;;;4.13;2.95;;;;;;;-1.16;100.00;94952.88;5095160;28;20039;-67
2021/12/13 02:13:21;;;;;;;5.78;3.50;;;;;;;-1.08;100.00;94970.81;5095974;28;20040;-68
2021/12/13 02:18:41;;;;;;;8.90;3.63;;;;;;;-1.19;100.00;94948.06;5092305;28;20436;-67
2021/12/13 02:21:31;;;;;;;4.28;2.65;;;;;;;-1.17;100.00;94958.94;5093047;28;20047;-68
2021/12/13 02:24:06;;;;;;;4.05;2.65;;;;;;;-1.14;100.00;94956.06;5093931;28;20489;-67
2021/12/13 02:26:34;;;;;;;;;;;;;;;-1.13;100.00;94952.59;5095815;28;20047;-67
2021/12/13 02:29:19;;;;;;;5.28;2.60;;;;;;;-1.17;100.00;94961.50;5111273;27;19934;-68
2021/12/13 02:31:46;;;;;;;4.43;3.25;;;;;;;-1.16;100.00;94960.56;5095215;28;20050;-68
2021/12/13 02:34:16;;;;;;;5.40;3.40;;;;;;;-1.20;100.00;94951.59;5093286;28;20063;-67
2021/12/13 02:36:50;;;;;;;4.22;3.42;;;;;;;-1.21;100.00;94957.66;5094216;28;20043;-66
2021/12/13 02:39:23;;;;;;;5.88;3.72;;;;;;;-1.21;100.00;94965.31;5096182;28;20051;-67
2021/12/13 02:41:52;;;;;;;7.75;2.80;;;;;;;-1.27;100.00;94946.31;5094021;28;20107;-67
2021/12/13 02:44:30;;;;;;;7.40;3.67;;;;;;;-1.24;100.00;94955.41;5093823;28;20452;-67
2021/12/13 02:47:00;;;;;;;7.53;3.28;;;;;;;-1.23;100.00;94957.00;5093847;28;20092;-68
2021/12/13 02:49:31;;;;;;;4.00;2.55;;;;;;;-1.15;100.00;94974.94;5075664;28;20076;-67
2021/12/13 02:52:04;;;;;;;6.32;2.58;;;;;;;-1.15;100.00;94957.06;5092825;28;20051;-67
2021/12/13 02:54:38;;;;;;;4.53;2.65;;;;;;;-1.12;100.00;94969.50;5094965;28;20043;-67
2021/12/13 02:57:11;;;;;;;5.05;2.72;;;;;;;-1.18;100.00;94965.81;5094754;28;20118;-67
2021/12/13 02:59:42;;;;;;;5.70;2.75;;;;;;;-1.15;100.00;94964.72;5094792;28;20108;-67
2021/12/13 03:02:41;;;;;;;4.60;3.13;;;;;;;-1.16;100.00;94963.09;5095631;28;20043;-66
2021/12/13 03:05:14;;;;;;;4.53;3.15;;;;;;;-1.20;100.00;94961.81;5091426;28;20064;-67
2021/12/13 03:07:47;;;;;;;3.05;2.40;;;;;;;-1.24;100.00;94955.41;5102511;28;20114;-67
2021/12/13 03:10:19;;;;;;;5.28;3.13;;;;;;;-1.25;100.00;94958.94;5091491;28;20066;-67
2021/12/13 03:12:46;;;;;;;4.70;2.83;;;;;;;-1.27;100.00;94960.84;5094315;28;20040;-67
2021/12/13 03:15:18;;;;;;;5.10;2.97;;;;;;;-1.33;100.00;94943.56;5091579;28;20090;-67
2021/12/13 03:17:48;;;;;;;7.03;3.92;;;;;;;-1.37;100.00;94956.66;5090964;28;20501;-67
2021/12/13 03:20:29;;;;;;;4.20;2.63;;;;;;;-1.24;100.00;94955.41;5095206;28;20412;-67
2021/12/13 03:23:18;;;;;;;12.38;3.28;;;;;;;-1.39;100.00;94938.13;5093826;28;20529;-67
2021/12/13 03:26:19;;;;;;;4.68;3.17;;;;;;;-1.30;100.00;94961.13;5078770;28;20604;-67
2021/12/13 03:29:02;;;;;;;7.63;3.97;;;;;;;-1.23;100.00;94951.91;5098321;28;20032;-67
2021/12/13 03:31:37;;;;;;;7.68;3.88;;;;;;;-1.27;100.00;94951.41;5086394;28;20130;-67
2021/12/13 03:34:40;;;;;;;3.95;2.47;;;;;;;-1.28;100.00;94954.13;5096628;28;20043;-67
2021/12/13 03:37:09;;;;;;;4.47;2.80;;;;;;;-1.31;100.00;94949.34;5089755;28;20138;-67
2021/12/13 03:39:53;;;;;;;5.47;3.83;;;;;;;-1.32;100.00;94948.50;5091332;28;20032;-67
2021/12/13 03:42:28;;;;;;;6.43;3.83;;;;;;;-1.30;100.00;94940.69;5090518;28;20070;-67
2021/12/13 03:44:59;;;;;;;4.13;2.30;;;;;;;-1.35;100.00;94938.63;5093475;28;20055;-67
2021/12/13 03:47:37;;;;;;;4.60;2.20;;;;;;;-1.36;100.00;94942.91;5094343;28;20035;-67
2021/12/13 03:50:09;;;;;;;5.40;3.47;;;;;;;-1.29;100.00;94949.97;5075236;28;20039;-67
2021/12/13 03:52:41;;;;;;;4.57;3.05;;;;;;;-1.32;100.00;94952.84;5092107;28;20040;-67
2021/12/13 03:55:15;;;;;;;5.47;3.25;;;;;;;-1.36;100.00;94955.69;5096597;28;20040;-67
2021/12/13 03:57:49;;;;;;;5.22;2.42;;;;;;;-1.42;100.00;94943.53;5094037;28;20044;-66
2021/12/13 04:00:20;;;;;;;3.73;2.03;;;;;;;-1.31;100.00;94954.44;5094055;28;20122;-67
2021/12/13 04:02:48;;;;;;;4.40;2.75;;;;;;;-1.32;100.00;94947.72;5091263;28;20044;-67
2021/12/13 04:05:19;;;;;;;3.70;2.17;;;;;;;-1.39;100.00;94938.13;5092995;28;20052;-67
2021/12/13 04:07:49;;;;;;;4.47;3.00;;;;;;;-1.30;100.00;94945.81;5092372;28;20183;-67
2021/12/13 04:10:32;;;;;;;6.70;3.28;;;;;;;-1.32;100.00;94952.84;5092320;28;20424;-67
2021/12/13 04:13:10;;;;;;;4.00;2.25;;;;;;;-1.39;100.00;94948.34;5091325;28;20042;-67
2021/12/13 04:16:04;;;;;;;4.13;2.42;;;;;;;-1.39;100.00;94943.25;5095899;28;20036;-66
2021/12/13 04:21:24;;;;;;;5.25;3.22;;;;;;;-1.49;100.00;94931.53;5086438;28;20032;-66
2021/12/13 04:23:59;;;;;;;5.97;3.95;;;;;;;-1.32;100.00;94963.06;5092950;28;20052;-67
2021/12/13 04:26:29;;;;;;;4.75;3.28;;;;;;;-1.24;100.00;94960.50;5088726;28;20051;-67
2021/12/13 04:28:59;;;;;;;10.23;4.72;;;;;;;-1.31;100.00;94960.34;5080600;28;20035;-67
2021/12/13 04:31:32;;;;;;;6.82;3.58;;;;;;;-1.26;100.00;94978.59;5065710;28;20045;-67
2021/12/13 04:34:03;;;;;;;9.02;4.40;;;;;;;-1.25;100.00;94987.03;5083515;28;20527;-67
2021/12/13 04:36:47;;;;;;;4.50;3.03;;;;;;;-1.30;100.00;94984.13;5077353;28;20394;-67
2021/12/13 04:39:36;;;;;;;6.20;3.38;;;;;;;-1.29;100.00;94988.31;5093037;28;20110;-67
2021/12/13 04:42:09;;;;;;;5.05;3.72;;;;;;;-1.24;100.00;94983.50;5094063;28;20051;-67
2021/12/13 04:44:54;;;;;;;5.60;3.60;;;;;;;-1.28;100.00;94984.78;5093004;28;20043;-67
2021/12/13 04:48:09;;;;;;;6.28;4.47;;;;;;;-1.23;100.00;94987.69;5093909;28;20457;-67
2021/12/13 04:50:45;;;;;;;6.00;3.28;;;;;;;-1.24;100.00;94986.06;5049049;28;20056;-67
2021/12/13 04:53:50;;;;;;;5.00;3.53;;;;;;;-1.27;100.00;94981.28;5092324;28;20046;-66
2021/12/13 04:56:21;;;;;;;5.70;2.88;;;;;;;-1.29;100.00;94993.41;5021127;28;20049;-67
2021/12/13 04:58:51;;;;;;;9.73;5.60;;;;;;;-1.25;100.00;94989.59;5079561;28;20717;-66
2021/12/13 05:01:19;;;;;;;7.88;4.13;;;;;;;-1.41;100.00;94975.78;5072155;28;20039;-66
2021/12/13 05:03:53;;;;;;;6.78;4.05;;;;;;;-1.22;100.00;94996.97;5095022;28;20056;-67
2021/12/13 05:06:25;;;;;;;6.50;3.58;;;;;;;-1.20;100.00;95005.28;5087243;28;20047;-67
2021/12/13 05:08:58;;;;;;;9.13;4.75;;;;;;;-1.23;100.00;95005.56;5086726;28;20040;-66
2021/12/13 05:11:34;;;;;;;5.40;3.95;;;;;;;-1.30;100.00;94994.34;5092352;28;20524;-67
2021/12/13 05:14:02;;;;;;;7.97;4.25;;;;;;;-1.58;100.00;94959.59;5093186;28;20735;-66
2021/12/13 05:16:41;;;;;;;7.82;4.32;;;;;;;-1.27;100.00;94991.50;5091984;28;20382;-67
2021/12/13 05:19:11;;;;;;;5.85;4.38;;;;;;;-1.26;100.00;94990.53;5093873;28;20428;-66
2021/12/13 05:21:43;;;;;;;7.53;4.05;;;;;;;-1.25;100.00;94994.72;5094006;28;20039;-67
2021/12/13 05:24:17;;;;;;;5.28;3.25;;;;;;;-1.28;100.00;94989.91;5090341;28;20566;-67
2021/12/13 05:26:52;;;;;;;5.93;3.33;;;;;;;-1.36;100.00;94988.91;5097182;28;20048;-66
2021/12/13 05:29:42;;;;;;;8.10;4.43;;;;;;;-1.25;100.00;95007.47;5090593;28;20044;-66
2021/12/13 05:32:22;;;;;;;3.92;2.50;;;;;;;-1.25;100.00;95010.03;5089157;28;20066;-67
2021/12/13 05:35:00;;;;;;;8.77;4.63;;;;;;;-1.41;100.00;94992.88;5096871;28;20046;-67
2021/12/13 05:37:39;;;;;;;9.50;5.40;;;;;;;-1.33;100.00;95004.88;5097733;28;20505;-66
2021/12/13 05:40:11;;;;;;;10.50;6.00;;;;;;;-1.33;100.00;94997.22;5097821;28;20032;-67
2021/12/13 05:42:53;;;;;;;10.27;5.20;;;;;;;-1.35;100.00;94998.19;5093157;28;20126;-67
2021/12/13 05:45:39;;;;;;;11.80;4.78;;;;;;;-1.26;100.00;95013.53;5094697;28;20040;-67
2021/12/13 05:48:20;;;;;;;11.82;5.40;;;;;;;-1.29;100.00;95013.88;5096392;28;20032;-67
2021/12/13 05:50:59;;;;;;;6.13;3.47;;;;;;;-1.40;100.00;95005.50;5089849;28;20040;-67
2021/12/13 05:53:34;;;;;;;9.75;4.70;;;;;;;-1.44;100.00;95001.66;5091581;28;20097;-66
2021/12/13 05:56:09;;;;;;;10.77;6.32;;;;;;;-1.30;100.00;95022.47;5099227;28;20498;-67
2021/12/13 05:58:53;;;;;;;7.82;4.88;;;;;;;-1.31;100.00;95021.69;5097904;28;20044;-67
2021/12/13 06:01:28;;;;;;;8.20;4.38;;;;;;;-1.35;100.00;95021.19;5097812;28;20048;-67
2021/12/13 06:04:07;;;;;;;9.85;5.95;;;;;;;-1.32;100.00;95039.72;5097887;28;20127;-68
2021/12/13 06:06:55;;;;;;;12.20;5.55;;;;;;;-1.37;100.00;95040.97;5092359;28;20043;-67
2021/12/13 06:09:40;;;;;;;8.18;5.00;;;;;;;-1.37;100.00;95033.31;5090990;28;20059;-67
2021/12/13 06:12:24;;;;;;;9.70;5.50;;;;;;;-1.42;100.00;95030.41;5097364;28;20059;-67
2021/12/13 06:14:53;;;;;;;7.07;4.53;;;;;;;-1.40;100.00;95038.72;5094728;28;20044;-67
2021/12/13 06:17:28;;;;;;;8.27;5.20;;;;;;;-1.46;100.00;95029.13;5092375;28;20074;-67
2021/12/13 06:20:03;;;;;;;12.77;6.45;;;;;;;-1.39;100.00;95039.50;5095588;28;20409;-67
2021/12/13 06:22:32;;;;;;;9.07;4.18;;;;;;;-1.39;100.00;95035.22;5078748;28;20051;-67
2021/12/13 06:25:05;;;;;;;7.05;4.05;;;;;;;-1.39;100.00;95037.78;5094940;28;20039;-67
2021/12/13 06:27:42;;;;;;;8.70;5.10;;;;;;;-1.31;100.00;95042.13;5097262;28;20039;-66
2021/12/13 06:30:21;;;;;;;13.48;8.05;;;;;;;-1.38;100.00;95031.69;5094005;28;20032;-67
2021/12/13 06:33:01;;;;;;;21.00;10.85;;;;;;;-1.36;100.00;95034.91;5095464;28;20048;-67
2021/12/13 06:35:51;;;;;;;12.65;6.35;;;;;;;-1.28;100.00;95052.03;5097210;28;20057;-66
2021/12/13 06:38:37;;;;;;;14.07;6.55;;;;;;;-1.36;100.00;95045.13;5096378;28;20517;-67
2021/12/13 06:41:09;;;;;;;8.93;5.30;;;;;;;-1.31;100.00;95051.56;5098743;28;20110;-67
2021/12/13 06:43:58;;;;;;;10.18;5.75;;;;;;;-1.33;100.00;95043.22;5095575;28;20044;-67
2021/12/13 06:46:39;;;;;;;9.63;5.80;;;;;;;-1.25;100.00;95050.94;5082303;28;20047;-67
2021/12/13 06:49:16;;;;;;;7.85;5.47;;;;;;;-1.40;100.00;95048.94;5096416;28;20113;-67
2021/12/13 06:51:49;;;;;;;7.93;4.53;;;;;;;-1.34;100.00;95057.75;5096025;28;20047;-67
2021/12/13 06:54:24;;;;;;;7.50;4.60;;;;;;;-1.28;100.00;95069.13;5095851;28;20425;-67
2021/12/13 06:57:03;;;;;;;9.60;5.47;;;;;;;-1.24;100.00;95067.84;5096219;28;20050;-67
2021/12/13 06:59:33;;;;;;;12.50;5.55;;;;;;;-1.22;100.00;95055.75;5095432;28;20044;-67
2021/12/13 07:02:06;;;;;;;8.10;5.35;;;;;;;-1.21;100.00;95067.56;5093882;28;20078;-66
2021/12/13 07:05:11;;;;;;;7.68;4.38;;;;;;;-1.21;100.00;95077.78;5095283;28;20032;-67
2021/12/13 07:07:50;;;;;;;12.98;5.35;;;;;;;-1.23;100.00;95069.47;5043489;28;20539;-67
2021/12/13 07:10:27;;;;;;;12.75;6.43;;;;;;;-1.16;100.00;95085.78;5098861;28;20029;-66
2021/12/13 07:12:59;;;;;;;12.15;6.40;;;;;;;-1.19;100.00;95076.69;5093256;28;20416;-67
2021/12/13 07:15:55;;;;;;;7.10;4.45;;;;;;;-1.11;100.00;95085.34;5096677;28;20040;-67
2021/12/13 07:18:29;;;;;;;13.73;7.78;;;;;;;-1.10;100.00;95069.84;5076168;28;20532;-67
2021/12/13 07:21:10;;;;;;;15.30;6.78;;;;;;;-1.04;100.00;95074.34;5091616;28;20040;-67
2021/12/13 07:24:05;;;;;;;13.07;5.97;;;;;;;-0.99;100.00;95081.56;5088202;28;20040;-67
2021/12/13 07:26:49;;;;;;;8.15;4.85;;;;;;;-1.04;100.00;95089.69;5088574;28;20489;-67
2021/12/13 07:29:29;;;;;;;7.60;4.32;;;;;;;-1.00;100.00;95080.75;5089907;28;20126;-67
2021/12/13 07:32:14;;;;;;;7.90;4.40;;;;;;;-0.96;100.00;95076.94;5093468;28;20074;-67
2021/12/13 07:34:52;;;;;;;11.77;5.35;;;;;;;-0.96;100.00;95089.72;5098741;28;20511;-67
2021/12/13 07:37:33;;;;;;;6.20;4.28;;;;;;;-1.07;100.00;95069.53;5096132;28;20048;-68
2021/12/13 07:40:22;;;;;;;12.50;5.43;;;;;;;-1.02;100.00;95092.91;5091583;28;20043;-67
2021/12/13 07:42:55;;;;;;;7.15;4.60;;;;;;;-1.05;100.00;95098.31;5095102;28;20043;-67
2021/12/13 07:45:31;;;;;;;10.35;6.05;;;;;;;-0.94;100.00;95099.00;5093665;28;20063;-67
2021/12/13 07:48:03;;;;;;;8.88;4.72;;;;;;;-0.96;100.00;95102.50;5096470;28;20047;-67
2021/12/13 07:50:32;;;;;;;6.15;3.78;;;;;;;-1.10;100.00;95085.19;5088218;28;20032;-67
2021/12/13 07:53:03;;;;;;;4.60;2.85;;;;;;;-0.98;100.00;95104.41;5095210;28;20047;-67
2021/12/13 07:55:30;;;;;;;7.05;4.00;;;;;;;-0.98;100.00;95109.53;5070243;28;20050;-67
2021/12/13 07:58:03;;;;;;;6.95;4.22;;;;;;;-1.17;100.00;95073.97;5089822;28;20050;-68
2021/12/13 08:00:39;;;;;;;6.82;4.57;;;;;;;-0.97;100.00;95106.03;5096595;28;20040;-67
2021/12/13 08:03:14;;;;;;;6.07;3.85;;;;;;;-0.96;100.00;95106.81;5087423;28;21864;-68
2021/12/13 08:05:48;;;;;;;7.95;5.07;;;;;;;-0.91;100.00;95114.06;5089831;28;20473;-68
2021/12/13 08:08:27;;;;;;;8.10;4.70;;;;;;;-0.95;100.00;95108.44;5088532;28;20686;-68
2021/12/13 08:10:59;;;;;;;6.55;3.60;;;;;;;-0.97;100.00;95100.91;5092192;28;20047;-68
2021/12/13 08:13:30;;;;;;;8.70;6.18;;;;;;;-0.96;100.00;95112.72;5093178;28;20040;-68
2021/12/13 08:16:05;;;;;;;8.60;4.60;;;;;;;-0.94;100.00;95124.56;5093885;28;20043;-68
2021/12/13 08:18:39;;;;;;;5.53;4.55;;;;;;;-0.97;100.00;95125.69;5094107;28;20043;-68
2021/12/13 08:21:22;;;;;;;11.82;5.72;;;;;;;-0.98;100.00;95129.97;5089182;28;20031;-68
2021/12/13 08:23:56;;;;;;;7.05;4.65;;;;;;;-1.03;100.00;95118.63;5089279;28;20584;-69
2021/12/13 08:26:31;;;;;;;8.13;4.95;;;;;;;-0.94;100.00;95134.81;5088931;28;20044;-68
2021/12/13 08:29:00;;;;;;;7.35;4.30;;;;;;;-0.92;100.00;95127.78;5092207;28;20063;-68
2021/12/13 08:31:32;;;;;;;10.43;6.30;;;;;;;-0.98;100.00;95124.88;5093711;28;20043;-68
2021/12/13 08:34:12;;;;;;;9.95;5.78;;;;;;;-0.90;100.00;95130.97;5090983;28;20742;-68
2021/12/13 08:36:46;;;;;;;8.68;5.22;;;;;;;-0.96;100.00;95143.41;5088260;28;20509;-68
2021/12/13 08:39:16;;;;;;;12.52;7.88;;;;;;;-0.88;100.00;95150.34;5093230;28;20040;-68
2021/12/13 08:41:48;;;;;;;8.50;5.53;;;;;;;-0.85;100.00;95137.22;5089286;28;20058;-68
2021/12/13 08:44:21;;;;;;;8.75;5.45;;;;;;;-0.89;100.00;95117.25;5088320;28;20071;-69
2021/12/13 08:46:57;;;;;;;10.68;6.28;;;;;;;-0.83;100.00;95132.78;5098184;28;20048;-68
2021/12/13 08:49:30;;;;;;;8.93;6.22;;;;;;;-0.84;100.00;95135.50;5093531;28;20406;-68
2021/12/13 08:52:13;;;;;;;10.00;4.97;;;;;;;-0.77;100.00;95132.16;5094225;28;20044;-69
2021/12/13 08:54:51;;;;;;;10.57;5.50;;;;;;;-0.85;100.00;95124.44;5089852;28;20040;-68
2021/12/13 08:57:45;;;;;;;14.13;6.72;;;;;;;-0.74;100.00;95138.72;5093188;28;20031;-67
2021/12/13 09:00:12;;;;;;;14.60;8.05;;;;;;;-0.70;100.00;95131.53;5090683;28;20425;-69
2021/12/13 09:03:11;;;;;;;12.43;7.82;;;;;;;-0.66;100.00;95128.53;5092640;28;20142;-69
2021/12/13 09:05:50;;;;;;;13.00;8.18;;;;;;;-0.72;100.00;95111.25;5092560;28;20040;-69
2021/12/13 09:08:26;;;;;;;9.65;4.32;;;;;;;-0.72;100.00;95110.44;5099167;28;20112;-68
2021/12/13 09:10:58;;;;;;;5.85;4.15;;;;;;;-0.65;100.00;95127.59;5098828;28;20389;-69
2021/12/13 09:13:44;;;;;;;8.65;5.97;;;;;;;-0.65;100.00;95124.22;5097098;28;20119;-68
2021/12/13 09:16:16;;;;;;;11.80;7.13;;;;;;;-0.56;100.00;95123.28;5097119;28;20040;-68
2021/12/13 09:18:43;;;;;;;11.85;6.55;;;;;;;-0.61;100.00;95116.09;5092397;28;20073;-68
2021/12/13 09:21:15;;;;;;;11.60;6.82;;;;;;;-0.55;100.00;95116.44;5098997;28;20040;-68
2021/12/13 09:23:50;;;;;;;14.30;7.03;;;;;;;-0.53;100.00;95124.75;5099079;28;20072;-68
2021/12/13 09:26:23;;;;;;;8.30;5.63;;;;;;;-0.47;100.00;95119.00;5074024;28;20047;-70
2021/12/13 09:28:55;;;;;;;11.40;6.50;;;;;;;-0.47;100.00;95111.31;5089836;28;20776;-68
2021/12/13 09:31:29;;;;;;;9.68;4.93;;;;;;;-0.43;100.00;95110.88;5093070;28;20044;-68
2021/12/13 09:34:01;;;;;;;10.35;5.45;;;;;;;-0.45;100.00;95109.41;5099023;28;20048;-68
2021/12/13 09:36:37;;;;;;;11.25;6.72;;;;;;;-0.41;100.00;95105.59;5094253;28;20039;-69
2021/12/13 09:39:17;;;;;;;9.05;5.35;;;;;;;-0.38;100.00;95105.28;5095637;28;20046;-69
2021/12/13 09:41:46;;;;;;;7.03;4.57;;;;;;;-0.36;100.00;95103.38;5087410;28;20036;-69
2021/12/13 09:44:17;;;;;;;10.23;6.32;;;;;;;-0.29;100.00;95124.84;5089006;28;20115;-69
2021/12/13 09:46:56;;;;;;;9.95;5.68;;;;;;;-0.27;100.00;95112.69;5087434;28;20050;-69
2021/12/13 09:49:29;;;;;;;12.50;6.80;;;;;;;-0.25;100.00;95115.09;5087223;28;20145;-69
2021/12/13 09:52:04;;;;;;;8.52;6.28;;;;;;;-0.31;100.00;95111.38;5071272;28;20066;-68
2021/12/13 09:54:40;;;;;;;9.98;5.32;;;;;;;-0.34;100.00;95106.59;5095361;28;20040;-68
2021/12/13 09:57:19;;;;;;;18.88;4.93;;;;;;;-0.31;100.00;95110.56;5090087;28;20044;-68
2021/12/13 10:00:23;;;;;;;7.88;5.40;;;;;;;-0.30;100.00;95107.88;5088761;28;20054;-68
2021/12/13 10:02:54;;;;;;;7.72;5.18;;;;;;;-0.26;100.00;95111.69;5088934;28;20055;-67
2021/12/13 10:05:28;;;;;;;11.63;5.90;;;;;;;-0.28;100.00;95120.50;5090776;28;20032;-67
2021/12/13 10:08:04;;;;;;;9.23;5.38;;;;;;;-0.35;100.00;95104.97;5089887;28;20051;-67
2021/12/13 10:10:39;;;;;;;8.52;4.90;;;;;;;-0.36;100.00;95097.44;5095690;28;20043;-68
2021/12/13 10:13:10;;;;;;;6.57;5.00;;;;;;;-0.38;100.00;95095.03;5093584;28;20048;-68
2021/12/13 10:15:46;;;;;;;7.03;4.93;;;;;;;-0.27;100.00;95099.06;5089576;28;20048;-67
2021/12/13 10:18:18;;;;;;;13.77;5.65;;;;;;;-0.18;100.00;95105.00;5090777;28;20580;-67
2021/12/13 10:20:54;;;;;;;12.30;6.63;;;;;;;-0.12;100.00;95104.38;5090236;28;20087;-68
2021/12/13 10:23:26;;;;;;;9.07;5.57;;;;;;;-0.10;100.00;95097.34;5089403;28;20052;-68
2021/12/13 10:25:59;;;;;;;18.77;7.30;;;;;;;-0.12;100.00;95100.06;5092672;28;20044;-68
2021/12/13 10:28:34;;;;;;;12.20;6.70;;;;;;;-0.08;100.00;95103.91;5074053;28;20048;-68
2021/12/13 10:31:33;;;;;;;11.68;6.07;;;;;;;-0.01;100.00;95106.63;5088008;28;20050;-67
2021/12/13 10:34:06;;;;;;;14.13;6.70;;;;;;;-0.04;100.00;95102.66;5094027;28;20059;-68
2021/12/13 10:36:37;;;;;;;10.63;6.82;;;;;;;-0.04;100.00;95091.56;5070083;28;20050;-68
2021/12/13 10:39:10;;;;;;;15.68;6.65;;;;;;;0.13;100.00;95098.31;5090087;28;20058;-68
2021/12/13 10:42:01;;;;;;;14.32;6.82;;;;;;;0.01;100.00;95097.03;5089826;28;21180;-68
2021/12/13 10:44:30;;;;;;;10.18;6.50;;;;;;;0.02;100.00;95101.19;5075091;28;20131;-68
2021/12/13 10:47:10;;;;;;;8.57;4.90;;;;;;;-0.05;100.00;95100.25;5091849;28;20051;-68
2021/12/13 10:49:41;;;;;;;10.25;5.85;;;;;;;0.01;100.00;95093.69;5085806;28;20116;-68
2021/12/13 10:52:13;;;;;;;14.75;7.38;;;;;;;-0.01;100.00;95101.50;5091423;28;20520;-68
2021/12/13 10:54:47;;;;;;;23.13;11.38;;;;;;;0.04;100.00;95089.03;5088813;28;20123;-68
2021/12/13 10:57:19;;;;;;;23.27;10.43;;;;;;;0.06;100.00;95097.34;5090565;28;20051;-68
2021/12/13 10:59:49;;;;;;;9.57;5.03;;;;;;;0.12;100.00;95086.47;5092978;28;20063;-67
2021/12/13 11:02:23;;;;;;;12.73;7.55;;;;;;;0.19;100.00;95092.53;5094288;28;20050;-68
2021/12/13 11:04:55;;;;;;;;;;;;;;;0.23;100.00;95087.91;5073694;28;20120;-67
2021/12/13 11:07:23;;;;;;;16.15;6.53;;;;;;;0.21;100.00;95089.84;5087907;28;19946;-67
2021/12/13 11:09:52;;;;;;;10.52;5.97;;;;;;;0.23;100.00;95090.47;5093981;28;20062;-67
2021/12/13 11:12:44;;;;;;;9.60;6.00;;;;;;;0.24;100.00;95083.59;5090801;28;20040;-67
2021/12/13 11:15:20;;;;;;;12.00;5.43;;;;;;;0.29;100.00;95086.47;5065878;28;20057;-68
2021/12/13 11:17:48;;;;;;;11.32;6.53;;;;;;;0.33;100.00;95078.31;5091763;28;20148;-67
2021/12/13 11:20:20;;;;;;;13.20;7.32;;;;;;;0.28;100.00;95079.75;5091175;28;20058;-67
2021/12/13 11:22:49;;;;;;;13.70;6.65;;;;;;;0.34;100.00;95089.34;5087016;28;20043;-67
2021/12/13 11:25:24;;;;;;;8.75;5.35;;;;;;;0.24;100.00;95081.03;5088059;28;20044;-67
2021/12/13 11:27:51;;;;;;;13.57;7.18;;;;;;;0.21;100.00;95053.19;5091569;28;20468;-68
2021/12/13 11:30:23;;;;;;;12.55;7.35;;;;;;;0.39;100.00;95076.84;5088095;28;20040;-68
2021/12/13 11:33:10;;;;;;;11.73;6.68;;;;;;;0.42;100.00;95073.97;5093597;28;20046;-67
2021/12/13 11:36:07;;;;;;;10.38;5.80;;;;;;;0.41;100.00;95080.06;5059467;28;20044;-67
2021/12/13 11:39:09;;;;;;;11.63;6.95;;;;;;;0.43;100.00;95082.47;5082179;28;20448;-67
2021/12/13 11:41:51;;;;;;;9.70;6.32;;;;;;;0.47;100.00;95076.03;5090618;28;20059;-67
2021/12/13 11:44:50;;;;;;;10.43;6.93;;;;;;;0.46;100.00;95077.81;5094131;28;20147;-67
2021/12/13 11:47:29;;;;;;;11.00;6.10;;;;;;;0.49;100.00;95072.38;5094589;28;20111;-68
2021/12/13 11:50:15;;;;;;;9.60;5.90;;;;;;;0.50;100.00;95079.06;5093892;28;20097;-68
2021/12/13 11:53:19;;;;;;;7.40;4.20;;;;;;;0.42;100.00;95073.19;5091654;28;20044;-67
2021/12/13 11:55:52;;;;;;;7.25;4.65;;;;;;;0.45;100.00;95071.09;5088983;28;20040;-69
2021/12/13 11:58:48;;;;;;;9.55;5.55;;;;;;;0.47;100.00;95074.31;5096510;28;20048;-69
2021/12/13 12:01:49;;;;;;;7.88;5.35;;;;;;;0.50;100.00;95073.94;5096734;28;20353;-69
2021/12/13 12:05:07;;;;;;;9.55;5.95;;;;;;;0.60;100.00;95073.00;5092068;28;20112;-69
2021/12/13 12:07:46;;;;;;;10.82;6.47;;;;;;;0.60;100.00;95075.56;5030633;28;20448;-69
2021/12/13 12:10:31;;;;;;;10.55;6.85;;;;;;;0.57;100.00;95074.13;5032832;28;20633;-69
2021/12/13 12:13:36;;;;;;;10.75;6.93;;;;;;;0.74;100.00;95080.03;5071901;28;20043;-70
2021/12/13 12:16:05;;;;;;;10.43;6.13;;;;;;;0.73;100.00;95088.66;5090861;28;20036;-69
2021/12/13 12:18:38;;;;;;;8.52;4.97;;;;;;;0.70;100.00;95084.69;5088626;28;20092;-69